createdAt,value
2017-11-08T00:01:25.727Z,10.90
2017-11-08T00:03:53.995Z,11.00
2017-11-08T00:06:21.485Z,10.90
2017-11-08T00:08:48.988Z,11.00
2017-11-08T00:11:16.479Z,11.00
2017-11-08T00:13:44.738Z,11.00
2017-11-08T00:16:12.231Z,11.00
2017-11-08T00:18:40.491Z,11.00
2017-11-08T00:21:08.754Z,11.00
2017-11-08T00:23:36.241Z,11.00
2017-11-08T00:26:04.494Z,11.00
2017-11-08T00:28:31.995Z,10.90
2017-11-08T00:30:59.487Z,11.10
2017-11-08T00:33:26.978Z,11.40
2017-11-08T00:35:55.248Z,11.20
2017-11-08T00:38:22.736Z,11.20
2017-11-08T00:40:50.987Z,11.00
2017-11-08T00:43:18.481Z,10.90
2017-11-08T00:45:45.963Z,10.90
2017-11-08T00:48:13.462Z,10.80
2017-11-08T00:50:40.951Z,10.90
2017-11-08T00:53:09.989Z,11.00
2017-11-08T00:55:37.474Z,10.90
2017-11-08T00:58:04.954Z,10.90
2017-11-08T01:00:35.161Z,10.90
2017-11-08T01:03:03.468Z,11.00
2017-11-08T01:05:31.006Z,11.00
2017-11-08T01:07:59.305Z,11.00
2017-11-08T01:10:26.801Z,11.00
2017-11-08T01:12:54.290Z,11.10
2017-11-08T01:15:21.769Z,11.10
2017-11-08T01:17:50.026Z,10.90
2017-11-08T01:20:17.516Z,10.90
2017-11-08T01:22:45.017Z,10.80
2017-11-08T01:25:12.502Z,10.80
2017-11-08T01:27:39.986Z,10.80
2017-11-08T01:30:08.235Z,10.60
2017-11-08T01:32:35.726Z,10.60
2017-11-08T01:35:03.974Z,10.70
2017-11-08T01:37:37.259Z,10.60
2017-11-08T01:40:09.674Z,10.70
2017-11-08T01:42:37.196Z,10.70
2017-11-08T01:45:07.501Z,10.80
2017-11-08T01:47:34.997Z,10.70
2017-11-08T01:50:03.252Z,10.70
2017-11-08T01:52:30.743Z,10.60
2017-11-08T01:54:59.010Z,10.80
2017-11-08T01:57:27.271Z,10.80
2017-11-08T01:59:54.766Z,10.70
2017-11-08T02:02:23.010Z,10.90
2017-11-08T02:04:50.503Z,10.90
2017-11-08T02:07:18.777Z,10.90
2017-11-08T02:09:48.073Z,10.90
2017-11-08T02:12:16.370Z,10.90
2017-11-08T02:14:43.853Z,10.80
2017-11-08T02:17:11.343Z,10.80
2017-11-08T02:19:38.827Z,10.70
2017-11-08T02:22:07.079Z,10.60
2017-11-08T02:24:37.140Z,10.60
2017-11-08T02:27:05.430Z,10.50
2017-11-08T02:29:32.972Z,10.50
2017-11-08T02:32:00.489Z,10.50
2017-11-08T02:34:27.979Z,10.50
2017-11-08T02:36:56.235Z,10.60
2017-11-08T02:39:23.741Z,10.60
2017-11-08T02:41:51.242Z,10.50
2017-11-08T02:44:18.727Z,10.40
2017-11-08T02:47:01.557Z,10.60
2017-11-08T02:49:32.747Z,10.50
2017-11-08T02:52:00.247Z,10.50
2017-11-08T02:54:28.508Z,10.50
2017-11-08T02:56:56.002Z,10.40
2017-11-08T02:59:24.272Z,10.70
2017-11-08T03:01:52.528Z,10.80
2017-11-08T03:04:21.962Z,10.70
2017-11-08T03:06:50.213Z,10.60
2017-11-08T03:09:17.697Z,10.50
2017-11-08T03:11:45.943Z,10.80
2017-11-08T03:14:13.429Z,10.70
2017-11-08T03:16:41.679Z,10.80
2017-11-08T03:19:09.163Z,10.70
2017-11-08T03:21:37.414Z,10.80
2017-11-08T03:24:04.896Z,10.70
2017-11-08T03:26:33.145Z,10.60
2017-11-08T03:29:00.639Z,10.60
2017-11-08T03:31:28.135Z,10.60
2017-11-08T03:33:55.627Z,10.60
2017-11-08T03:36:23.117Z,10.60
2017-11-08T03:38:51.370Z,10.60
2017-11-08T03:41:18.858Z,10.60
2017-11-08T03:43:46.342Z,10.50
2017-11-08T03:46:13.819Z,10.50
2017-11-08T03:48:41.306Z,10.60
2017-11-08T03:51:08.801Z,10.50
2017-11-08T03:53:36.281Z,10.60
2017-11-08T03:56:03.758Z,10.80
2017-11-08T03:58:31.246Z,10.80
2017-11-08T04:00:59.494Z,10.70
2017-11-08T04:03:26.976Z,10.60
2017-11-08T04:05:54.462Z,10.60
2017-11-08T04:08:21.942Z,10.70
2017-11-08T04:10:49.440Z,10.70
2017-11-08T04:13:16.930Z,10.70
2017-11-08T04:15:45.181Z,10.60
2017-11-08T04:18:12.655Z,10.60
2017-11-08T04:20:40.906Z,10.60
2017-11-08T04:23:08.394Z,10.60
2017-11-08T04:25:36.642Z,10.70
2017-11-08T04:28:04.893Z,10.70
2017-11-08T04:30:32.373Z,10.60
2017-11-08T04:32:59.861Z,10.60
2017-11-08T04:35:28.126Z,10.70
2017-11-08T04:37:56.383Z,10.70
2017-11-08T04:40:24.638Z,10.70
2017-11-08T04:42:52.120Z,10.60
2017-11-08T04:45:19.614Z,10.60
2017-11-08T04:47:47.873Z,10.60
2017-11-08T04:50:15.357Z,10.60
2017-11-08T04:52:43.623Z,10.40
2017-11-08T04:55:11.877Z,10.40
2017-11-08T04:57:39.357Z,10.30
2017-11-08T05:00:06.845Z,10.30
2017-11-08T05:02:34.329Z,10.10
2017-11-08T05:05:01.805Z,10.20
2017-11-08T05:07:29.277Z,10.20
2017-11-08T05:09:56.757Z,10.30
2017-11-08T05:12:25.003Z,10.00
2017-11-08T05:14:52.485Z,10.00
2017-11-08T05:17:20.740Z,10.00
2017-11-08T05:19:48.231Z,10.00
2017-11-08T05:22:16.473Z,10.00
2017-11-08T05:24:44.009Z,9.90
2017-11-08T05:27:11.489Z,10.00
2017-11-08T05:29:38.978Z,10.20
2017-11-08T05:32:07.231Z,10.20
2017-11-08T05:34:34.725Z,10.20
2017-11-08T05:37:02.988Z,10.00
2017-11-08T05:39:31.246Z,10.00
2017-11-08T05:41:58.734Z,10.00
2017-11-08T05:44:26.986Z,9.90
2017-11-08T05:46:55.971Z,9.90
2017-11-08T05:49:23.451Z,9.80
2017-11-08T05:51:51.718Z,10.00
2017-11-08T05:54:19.203Z,10.00
2017-11-08T05:56:47.449Z,9.90
2017-11-08T05:59:14.953Z,9.90
2017-11-08T06:01:42.426Z,9.90
2017-11-08T06:04:09.919Z,10.00
2017-11-08T06:06:37.410Z,10.00
2017-11-08T06:09:05.659Z,10.00
2017-11-08T06:11:33.186Z,9.90
2017-11-08T06:14:00.674Z,10.00
2017-11-08T06:16:28.156Z,10.00
2017-11-08T06:18:56.401Z,10.00
2017-11-08T06:21:23.878Z,9.90
2017-11-08T06:23:51.366Z,10.00
2017-11-08T06:26:19.625Z,10.00
2017-11-08T06:28:47.114Z,10.00
2017-11-08T06:31:14.590Z,10.00
2017-11-08T06:33:42.074Z,10.00
2017-11-08T06:36:09.561Z,10.00
2017-11-08T06:38:37.055Z,10.00
2017-11-08T06:41:04.545Z,10.00
2017-11-08T06:43:32.021Z,10.10
2017-11-08T06:45:59.556Z,10.10
2017-11-08T06:48:27.042Z,10.00
2017-11-08T06:50:54.537Z,10.10
2017-11-08T06:53:22.791Z,10.10
2017-11-08T06:55:56.033Z,10.00
2017-11-08T06:58:23.512Z,10.10
2017-11-08T07:00:51.051Z,10.20
2017-11-08T07:03:18.525Z,10.20
2017-11-08T07:05:46.001Z,10.20
2017-11-08T07:08:13.484Z,10.20
2017-11-08T07:10:41.740Z,10.20
2017-11-08T07:13:09.220Z,10.10
2017-11-08T07:15:37.458Z,10.20
2017-11-08T07:18:04.933Z,10.20
2017-11-08T07:20:32.418Z,10.20
2017-11-08T07:23:00.667Z,10.40
2017-11-08T07:25:28.144Z,10.40
2017-11-08T07:27:55.625Z,10.50
2017-11-08T07:30:23.877Z,10.50
2017-11-08T07:32:51.362Z,10.50
2017-11-08T07:35:19.611Z,10.60
2017-11-08T07:37:47.090Z,10.50
2017-11-08T07:40:15.333Z,10.60
2017-11-08T07:42:42.821Z,10.60
2017-11-08T07:45:11.057Z,10.70
2017-11-08T07:47:38.533Z,10.60
2017-11-08T07:50:06.013Z,10.70
2017-11-08T07:52:34.256Z,10.70
2017-11-08T07:55:01.733Z,10.70
2017-11-08T07:57:29.204Z,10.70
2017-11-08T07:59:57.454Z,10.50
2017-11-08T08:02:24.940Z,10.50
2017-11-08T08:04:53.188Z,10.30
2017-11-08T08:07:20.673Z,10.30
2017-11-08T08:09:50.135Z,10.30
2017-11-08T08:12:17.625Z,10.30
2017-11-08T08:14:45.102Z,10.30
2017-11-08T08:17:13.350Z,10.50
2017-11-08T08:19:40.829Z,10.40
2017-11-08T08:22:14.902Z,10.50
2017-11-08T08:24:42.381Z,10.50
2017-11-08T08:27:09.869Z,10.40
2017-11-08T08:29:39.898Z,10.40
2017-11-08T08:32:08.145Z,10.40
2017-11-08T08:34:35.635Z,10.30
2017-11-08T08:37:03.893Z,10.50
2017-11-08T08:39:31.369Z,10.50
2017-11-08T08:41:59.614Z,10.50
2017-11-08T08:44:27.094Z,10.50
2017-11-08T08:46:55.357Z,10.50
2017-11-08T08:49:22.835Z,10.50
2017-11-08T08:51:51.084Z,10.60
2017-11-08T08:54:18.583Z,10.50
2017-11-08T08:56:46.822Z,10.60
2017-11-08T08:59:14.305Z,10.50
2017-11-08T09:01:42.546Z,10.60
2017-11-08T09:04:10.026Z,10.60
2017-11-08T09:06:38.282Z,11.00
2017-11-08T09:09:05.774Z,10.90
2017-11-08T09:11:34.029Z,11.10
2017-11-08T09:14:01.526Z,11.00
2017-11-08T09:16:29.782Z,12.00
2017-11-08T09:18:58.062Z,11.90
2017-11-08T09:21:26.301Z,12.50
2017-11-08T09:23:53.778Z,12.40
2017-11-08T09:26:22.214Z,12.80
2017-11-08T09:28:49.698Z,12.40
2017-11-08T09:31:22.986Z,11.70
2017-11-08T09:33:50.470Z,11.40
2017-11-08T09:36:17.945Z,11.20
2017-11-08T09:38:45.435Z,11.30
2017-11-08T09:41:12.919Z,11.20
2017-11-08T09:43:40.406Z,11.20
2017-11-08T09:46:07.901Z,11.20
2017-11-08T09:48:35.395Z,11.20
2017-11-08T09:51:02.901Z,11.20
2017-11-08T09:53:31.156Z,11.10
2017-11-08T09:55:58.638Z,11.10
2017-11-08T09:58:26.901Z,11.20
2017-11-08T10:00:57.104Z,11.30
2017-11-08T10:03:24.585Z,11.30
2017-11-08T10:05:52.071Z,11.30
2017-11-08T10:08:20.311Z,11.20
2017-11-08T10:10:47.789Z,11.20
2017-11-08T10:13:19.089Z,11.50
2017-11-08T10:15:46.546Z,11.40
2017-11-08T10:18:14.016Z,11.50
2017-11-08T10:20:41.498Z,11.60
2017-11-08T10:23:08.982Z,11.60
2017-11-08T10:25:37.229Z,11.70
2017-11-08T10:28:04.710Z,11.60
2017-11-08T10:30:32.961Z,11.60
2017-11-08T10:33:00.447Z,11.60
2017-11-08T10:35:28.693Z,11.80
2017-11-08T10:37:56.224Z,11.80
2017-11-08T10:40:24.454Z,13.80
2017-11-08T10:42:51.896Z,13.80
2017-11-08T10:45:19.385Z,13.50
2017-11-08T10:47:46.861Z,12.70
2017-11-08T10:50:14.355Z,12.30
2017-11-08T10:52:45.467Z,12.10
2017-11-08T10:55:13.718Z,12.10
2017-11-08T10:57:41.203Z,12.10
2017-11-08T11:03:06.366Z,12.20
2017-11-08T11:05:34.617Z,12.20
2017-11-08T11:08:02.102Z,12.20
2017-11-08T11:10:30.372Z,12.20
2017-11-08T11:13:03.836Z,12.20
2017-11-08T11:15:31.314Z,12.20
2017-11-08T11:17:58.803Z,12.20
2017-11-08T11:20:27.846Z,12.20
2017-11-08T11:22:55.341Z,12.20
2017-11-08T11:25:22.819Z,12.30
2017-11-08T11:27:51.083Z,12.20
2017-11-08T11:30:24.228Z,12.10
2017-11-08T11:32:51.708Z,12.20
2017-11-08T11:35:19.200Z,12.30
2017-11-08T11:37:47.454Z,12.40
2017-11-08T11:40:14.934Z,12.30
2017-11-08T11:42:43.199Z,12.30
2017-11-08T11:45:10.682Z,12.30
2017-11-08T11:47:38.929Z,12.40
2017-11-08T11:50:06.405Z,12.40
2017-11-08T11:52:33.896Z,12.40
2017-11-08T11:55:01.384Z,12.40
2017-11-08T11:57:28.870Z,12.40
2017-11-08T11:59:56.374Z,12.30
2017-11-08T12:02:23.870Z,12.40
2017-11-08T12:04:51.354Z,12.60
2017-11-08T12:07:18.835Z,12.50
2017-11-08T12:09:47.089Z,12.60
2017-11-08T12:12:14.584Z,12.60
2017-11-08T12:14:42.085Z,12.60
2017-11-08T12:17:09.573Z,12.60
2017-11-08T12:19:37.932Z,12.60
2017-11-08T12:22:05.405Z,12.60
2017-11-08T12:24:32.902Z,12.60
2017-11-08T12:27:06.270Z,12.60
2017-11-08T12:29:36.213Z,12.70
2017-11-08T12:32:04.459Z,12.70
2017-11-08T12:34:31.939Z,12.60
2017-11-08T12:36:59.435Z,12.70
2017-11-08T12:39:26.926Z,12.70
2017-11-08T12:41:54.412Z,12.70
2017-11-08T12:44:25.435Z,12.70
2017-11-08T12:46:52.917Z,12.70
2017-11-08T12:49:21.168Z,12.70
2017-11-08T12:51:48.654Z,12.60
2017-11-08T12:54:16.911Z,12.80
2017-11-08T12:56:44.398Z,12.70
2017-11-08T12:59:12.661Z,12.80
2017-11-08T13:01:40.918Z,13.00
2017-11-08T13:04:08.402Z,12.90
2017-11-08T13:06:36.649Z,12.90
2017-11-08T13:09:04.137Z,12.90
2017-11-08T13:11:36.329Z,13.00
2017-11-08T13:14:03.811Z,12.90
2017-11-08T13:16:31.296Z,13.10
2017-11-08T13:18:58.779Z,13.00
2017-11-08T13:21:27.030Z,13.00
2017-11-08T13:23:54.519Z,13.00
2017-11-08T13:26:22.773Z,13.00
2017-11-08T13:28:50.254Z,13.00
2017-11-08T13:31:18.683Z,13.00
2017-11-08T13:33:46.176Z,13.00
2017-11-08T13:36:13.735Z,13.40
2017-11-08T13:38:41.430Z,13.50
2017-11-08T13:41:09.863Z,13.30
2017-11-08T13:43:37.351Z,13.20
2017-11-08T13:46:04.962Z,13.60
2017-11-08T13:48:32.580Z,13.50
2017-11-08T13:51:00.592Z,13.50
2017-11-08T13:53:28.464Z,13.60
2017-11-08T13:55:56.102Z,13.30
2017-11-08T13:58:25.145Z,13.20
2017-11-08T14:00:52.701Z,13.50
2017-11-08T14:03:20.409Z,13.50
2017-11-08T14:05:48.672Z,13.30
2017-11-08T14:08:16.154Z,13.30
2017-11-08T14:10:44.409Z,13.30
2017-11-08T14:13:11.912Z,13.20
2017-11-08T14:15:39.395Z,13.20
2017-11-08T14:18:06.884Z,13.70
2017-11-08T14:20:34.375Z,13.50
2017-11-08T14:23:01.863Z,13.60
2017-11-08T14:25:29.346Z,13.80
2017-11-08T14:27:56.839Z,13.60
2017-11-08T14:30:25.098Z,13.50
2017-11-08T14:32:52.597Z,13.50
2017-11-08T14:35:20.093Z,13.90
2017-11-08T14:37:47.572Z,13.90
2017-11-08T14:40:15.058Z,13.70
2017-11-08T14:42:43.318Z,13.90
2017-11-08T14:45:10.797Z,13.90
2017-11-08T14:47:39.062Z,14.10
2017-11-08T14:50:07.306Z,13.80
2017-11-08T14:52:34.800Z,13.80
2017-11-08T14:55:17.874Z,13.80
2017-11-08T14:57:45.366Z,13.70
2017-11-08T15:00:14.359Z,13.60
2017-11-08T15:02:41.839Z,13.60
2017-11-08T15:05:10.091Z,13.60
2017-11-08T15:07:37.589Z,13.50
2017-11-08T15:10:05.835Z,13.60
2017-11-08T15:12:39.077Z,13.50
2017-11-08T15:15:12.308Z,13.60
2017-11-08T15:17:39.788Z,13.60
2017-11-08T15:20:10.230Z,13.50
2017-11-08T15:22:38.608Z,13.40
2017-11-08T15:25:06.859Z,13.30
2017-11-08T15:27:34.342Z,13.20
2017-11-08T15:30:03.370Z,13.10
2017-11-08T15:32:30.850Z,13.00
2017-11-08T15:34:58.326Z,13.00
2017-11-08T15:37:25.806Z,12.80
2017-11-08T15:39:54.054Z,12.80
2017-11-08T15:42:21.533Z,12.80
2017-11-08T15:44:49.013Z,12.80
2017-11-08T15:47:17.266Z,12.80
2017-11-08T15:49:44.752Z,12.80
2017-11-08T15:52:13.013Z,12.80
2017-11-08T15:54:41.254Z,12.80
2017-11-08T15:57:08.738Z,12.80
2017-11-08T15:59:36.278Z,12.70
2017-11-08T16:02:05.646Z,12.70
2017-11-08T16:04:33.198Z,12.70
2017-11-08T16:07:00.690Z,12.70
2017-11-08T16:09:28.194Z,12.80
2017-11-08T16:11:56.442Z,12.50
2017-11-08T16:14:23.928Z,12.50
2017-11-08T16:16:52.182Z,12.60
2017-11-08T16:19:19.678Z,12.60
2017-11-08T16:21:47.926Z,12.50
2017-11-08T16:24:16.910Z,12.40
2017-11-08T16:26:44.397Z,12.40
2017-11-08T16:29:12.648Z,12.50
2017-11-08T16:31:40.134Z,12.50
2017-11-08T16:34:08.386Z,12.50
2017-11-08T16:36:36.874Z,12.50
2017-11-08T16:39:04.353Z,12.50
2017-11-08T16:41:32.606Z,12.60
2017-11-08T16:44:01.487Z,12.50
2017-11-08T16:46:28.997Z,12.50
2017-11-08T16:48:57.303Z,12.50
2017-11-08T16:51:24.785Z,12.50
2017-11-08T16:53:52.269Z,12.50
2017-11-08T16:56:20.517Z,12.50
2017-11-08T16:58:48.010Z,12.40
2017-11-08T17:01:16.262Z,12.40
2017-11-08T17:03:43.791Z,12.40
2017-11-08T17:06:11.303Z,12.50
2017-11-08T17:08:39.563Z,12.40
2017-11-08T17:11:07.042Z,12.30
2017-11-08T17:13:35.290Z,12.30
2017-11-08T17:16:02.787Z,12.30
2017-11-08T17:18:31.035Z,12.40
2017-11-08T17:20:58.509Z,12.40
2017-11-08T17:23:25.989Z,12.40
2017-11-08T17:25:54.231Z,12.30
2017-11-08T17:28:21.719Z,12.20
2017-11-08T17:30:50.057Z,12.10
2017-11-08T17:33:17.546Z,12.00
2017-11-08T17:35:45.802Z,12.20
2017-11-08T17:38:14.046Z,12.00
2017-11-08T17:40:41.529Z,12.00
2017-11-08T17:43:09.010Z,11.90
2017-11-08T17:45:37.274Z,11.90
2017-11-08T17:48:04.849Z,11.80
2017-11-08T17:50:33.097Z,11.80
2017-11-08T17:53:00.601Z,11.70
2017-11-08T17:55:28.838Z,11.90
2017-11-08T17:57:56.318Z,11.90
2017-11-08T18:00:24.575Z,11.90
2017-11-08T18:02:52.055Z,11.90
2017-11-08T18:05:20.306Z,11.90
2017-11-08T18:07:47.784Z,11.90
2017-11-08T18:10:16.781Z,11.90
2017-11-08T18:12:44.291Z,11.90
2017-11-08T18:15:11.778Z,11.90
2017-11-08T18:17:39.262Z,11.80
2017-11-08T18:20:06.738Z,11.80
2017-11-08T18:22:36.950Z,11.70
2017-11-08T18:25:05.204Z,11.70
2017-11-08T18:27:32.691Z,11.60
2017-11-08T18:30:00.938Z,11.70
2017-11-08T18:32:28.421Z,11.60
2017-11-08T18:34:56.673Z,11.70
2017-11-08T18:37:24.159Z,11.70
2017-11-08T18:39:52.411Z,11.80
2017-11-08T18:42:19.899Z,11.70
2017-11-08T18:44:48.143Z,11.80
2017-11-08T18:47:15.631Z,11.70
2017-11-08T18:49:43.879Z,11.60
2017-11-08T18:52:11.365Z,11.60
2017-11-08T18:54:39.618Z,11.60
2017-11-08T18:57:07.102Z,11.60
2017-11-08T18:59:35.391Z,11.50
2017-11-08T19:02:03.638Z,11.40
2017-11-08T19:04:31.115Z,11.30
2017-11-08T19:06:59.428Z,11.50
2017-11-08T19:09:26.905Z,11.50
2017-11-08T19:11:54.382Z,11.60
2017-11-08T19:14:21.866Z,11.60
2017-11-08T19:16:50.114Z,11.60
2017-11-08T19:19:17.594Z,11.60
2017-11-08T19:21:45.083Z,11.60
2017-11-08T19:24:12.569Z,11.50
2017-11-08T19:26:40.855Z,11.50
2017-11-08T19:29:08.666Z,11.50
2017-11-08T19:31:37.772Z,11.30
2017-11-08T19:34:05.825Z,11.20
2017-11-08T19:36:34.049Z,11.30
2017-11-08T19:39:02.174Z,11.40
2017-11-08T19:41:30.294Z,11.30
2017-11-08T19:43:58.264Z,11.40
2017-11-08T19:46:26.439Z,11.30
2017-11-08T19:48:54.377Z,11.40
2017-11-08T19:51:22.994Z,11.40
2017-11-08T19:53:51.594Z,11.40
2017-11-08T19:56:19.630Z,11.50
2017-11-08T19:58:47.947Z,11.40
2017-11-08T20:01:15.900Z,11.40
2017-11-08T20:03:43.631Z,11.40
2017-11-08T20:06:12.633Z,11.50
2017-11-08T20:08:41.371Z,11.50
2017-11-08T20:11:09.406Z,11.50
2017-11-08T20:13:37.566Z,11.50
2017-11-08T20:16:06.666Z,11.60
2017-11-08T20:18:35.247Z,11.50
2017-11-08T20:21:04.001Z,11.30
2017-11-08T20:23:31.937Z,11.30
2017-11-08T20:25:59.595Z,11.40
2017-11-08T20:28:27.522Z,11.60
2017-11-08T20:30:56.718Z,11.50
2017-11-08T20:33:24.194Z,11.50
2017-11-08T20:35:52.450Z,11.10
2017-11-08T20:38:19.942Z,11.10
2017-11-08T20:40:47.434Z,11.10
2017-11-08T20:43:14.915Z,11.10
2017-11-08T20:45:42.403Z,11.30
2017-11-08T20:48:10.651Z,11.20
2017-11-08T20:50:38.146Z,11.10
2017-11-08T20:53:06.402Z,11.30
2017-11-08T20:55:34.659Z,11.40
2017-11-08T20:58:02.151Z,11.40
2017-11-08T21:00:30.402Z,11.50
2017-11-08T21:02:57.881Z,11.40
2017-11-08T21:05:26.133Z,11.50
2017-11-08T21:07:53.626Z,11.50
2017-11-08T21:10:21.933Z,11.50
2017-11-08T21:12:49.409Z,11.40
2017-11-08T21:15:16.886Z,11.50
2017-11-08T21:17:44.384Z,11.50
2017-11-08T21:20:12.633Z,11.40
2017-11-08T21:22:40.117Z,11.40
2017-11-08T21:25:08.369Z,11.40
2017-11-08T21:27:35.936Z,11.30
2017-11-08T21:30:03.420Z,11.20
2017-11-08T21:32:30.910Z,11.20
2017-11-08T21:34:58.391Z,11.20
2017-11-08T21:37:25.879Z,11.40
2017-11-08T21:39:53.439Z,11.50
2017-11-08T21:42:21.697Z,11.60
2017-11-08T21:44:49.180Z,11.50
2017-11-08T21:47:17.427Z,11.30
2017-11-08T21:49:44.905Z,11.20
2017-11-08T21:52:13.162Z,11.50
2017-11-08T21:54:40.652Z,11.40
2017-11-08T21:57:08.925Z,11.20
2017-11-08T21:59:37.175Z,11.20
2017-11-08T22:02:05.440Z,11.10
2017-11-08T22:04:32.922Z,11.10
2017-11-08T22:07:00.406Z,11.10
2017-11-08T22:09:28.660Z,11.20
2017-11-08T22:11:56.156Z,11.20
2017-11-08T22:14:23.648Z,11.30
2017-11-08T22:16:51.127Z,11.20
2017-11-08T22:19:18.619Z,11.10
2017-11-08T22:21:46.874Z,11.00
2017-11-08T22:24:14.354Z,11.00
2017-11-08T22:26:42.611Z,11.00
2017-11-08T22:29:10.120Z,10.90
2017-11-08T22:31:37.602Z,11.00
2017-11-08T22:34:05.086Z,11.20
2017-11-08T22:36:32.578Z,11.20
2017-11-08T22:39:05.952Z,11.20
2017-11-08T22:41:34.212Z,11.00
2017-11-08T22:44:01.691Z,11.00
2017-11-08T22:46:29.943Z,11.10
2017-11-08T22:48:57.426Z,11.00
2017-11-08T22:51:25.677Z,11.20
2017-11-08T22:53:53.154Z,11.10
2017-11-08T22:56:21.402Z,11.00
2017-11-08T22:58:48.894Z,11.00
2017-11-08T23:01:17.142Z,11.10
2017-11-08T23:03:44.636Z,11.00
2017-11-08T23:06:12.894Z,10.90
2017-11-08T23:08:40.379Z,10.90
2017-11-08T23:11:08.623Z,10.90
2017-11-08T23:13:36.120Z,10.90
2017-11-08T23:16:04.365Z,11.00
2017-11-08T23:18:31.845Z,11.00
2017-11-08T23:21:00.083Z,11.10
2017-11-08T23:23:27.569Z,11.10
2017-11-08T23:25:55.051Z,11.20
2017-11-08T23:28:23.298Z,11.20
2017-11-08T23:30:50.779Z,11.20
2017-11-08T23:33:19.031Z,11.20
2017-11-08T23:35:46.522Z,11.20
2017-11-08T23:38:14.773Z,11.30
2017-11-08T23:40:42.257Z,11.20
2017-11-08T23:43:09.757Z,11.20
2017-11-08T23:45:37.234Z,11.20
2017-11-08T23:48:04.730Z,11.00
2017-11-08T23:50:32.984Z,11.00
2017-11-08T23:53:04.348Z,10.90
2017-11-08T23:55:32.590Z,11.10
2017-11-08T23:58:00.065Z,11.00
